Time;durP1;ratioP1;P1;durP2;ratioP2;P2;SDS_P1;SDS_P2;PMS_P1;PMS_P2;Temp;Humidity;BMP_temperature;BMP_pressure;BME280_temperature;BME280_humidity;BME280_pressure;Samples;Min_cycle;Max_cycle;Signal;HPM_P1;HPM_P2
2021/06/18 00:02:12;;;;;;;6.07;5.55;;;;;;;24.02;54.22;100602.59;4983060;28;20056;-85
2021/06/18 00:04:39;;;;;;;5.55;5.05;;;;;;;23.98;54.17;100612.63;4989000;28;20052;-84
2021/06/18 00:07:07;;;;;;;6.88;5.20;;;;;;;23.97;54.27;100631.44;4974507;28;20050;-84
2021/06/18 00:09:34;;;;;;;5.50;5.00;;;;;;;23.98;54.55;100639.38;4967642;28;20537;-85
2021/06/18 00:12:00;;;;;;;5.32;4.90;;;;;;;23.96;54.54;100643.94;5007523;28;20049;-84
2021/06/18 00:14:28;;;;;;;5.78;5.30;;;;;;;23.95;54.48;100642.25;4980613;28;20056;-85
2021/06/18 00:16:55;;;;;;;7.70;5.43;;;;;;;23.93;54.26;100645.00;5000690;28;20423;-84
2021/06/18 00:19:22;;;;;;;4.57;4.28;;;;;;;23.94;53.71;100641.38;4969733;28;20136;-84
2021/06/18 00:21:49;;;;;;;4.28;3.88;;;;;;;23.93;53.66;100644.16;4975420;28;20076;-84
2021/06/18 00:24:16;;;;;;;5.57;4.32;;;;;;;23.90;53.88;100639.88;4987515;28;20140;-83
2021/06/18 00:26:43;;;;;;;5.32;4.38;;;;;;;23.86;53.86;100640.16;4987509;28;20046;-82
2021/06/18 00:29:10;;;;;;;4.78;4.40;;;;;;;23.83;54.10;100638.53;4970603;28;20044;-84
2021/06/18 00:31:37;;;;;;;4.32;4.03;;;;;;;23.82;53.80;100635.94;4990955;28;20045;-84
2021/06/18 00:34:04;;;;;;;4.53;3.78;;;;;;;23.79;53.79;100643.22;4980627;28;20053;-85
2021/06/18 00:36:31;;;;;;;4.50;4.10;;;;;;;23.77;54.15;100641.59;4996518;28;20033;-83
2021/06/18 00:38:58;;;;;;;4.57;4.07;;;;;;;23.73;54.12;100632.06;4988677;28;20109;-83
2021/06/18 00:41:25;;;;;;;4.03;3.83;;;;;;;23.71;54.00;100640.16;4979584;28;20049;-85
2021/06/18 00:43:54;;;;;;;3.40;3.10;;;;;;;23.67;54.33;100633.28;4982076;28;20092;-84
2021/06/18 00:46:23;;;;;;;5.22;3.70;;;;;;;23.64;54.33;100630.84;4978559;28;20046;-84
2021/06/18 00:48:52;;;;;;;3.67;3.47;;;;;;;23.61;54.44;100631.88;5004539;28;20049;-85
2021/06/18 00:51:19;;;;;;;4.05;3.72;;;;;;;23.58;54.38;100629.44;4983067;28;20497;-84
2021/06/18 00:53:48;;;;;;;4.78;4.38;;;;;;;23.58;55.10;100636.56;5002591;28;20056;-85
2021/06/18 00:56:15;;;;;;;4.85;4.43;;;;;;;23.58;55.08;100634.78;4968079;28;20128;-85
2021/06/18 00:58:41;;;;;;;5.10;4.70;;;;;;;23.59;55.15;100638.28;4980909;28;20050;-85
2021/06/18 01:01:09;;;;;;;4.63;4.22;;;;;;;23.58;55.24;100636.56;4973105;28;20050;-84
2021/06/18 01:03:39;;;;;;;4.57;4.18;;;;;;;23.54;55.35;100632.38;4971906;28;20053;-84
2021/06/18 01:06:06;;;;;;;5.57;4.65;;;;;;;23.50;55.78;100633.53;4980508;28;20499;-84
2021/06/18 01:08:57;;;;;;;4.75;4.45;;;;;;;23.43;56.56;100628.56;4957188;28;20059;-84
2021/06/18 01:11:44;;;;;;;7.35;5.05;;;;;;;23.38;57.42;100633.34;4974515;28;20825;-84
2021/06/18 01:14:29;;;;;;;7.38;4.75;;;;;;;23.23;59.09;100624.50;4987626;28;20038;-83
2021/06/18 01:17:14;;;;;;;6.07;5.57;;;;;;;23.09;59.96;100613.78;4988582;28;20053;-85
2021/06/18 01:20:08;;;;;;;5.80;5.03;;;;;;;22.96;59.83;100606.53;4959516;28;20065;-83
2021/06/18 01:22:38;;;;;;;6.53;6.00;;;;;;;22.82;60.44;100611.88;4961826;28;20153;-84
2021/06/18 01:25:38;;;;;;;7.50;5.97;;;;;;;22.71;61.43;100615.19;4976457;28;20050;-84
2021/06/18 01:28:27;;;;;;;5.60;5.10;;;;;;;22.61;62.23;100616.69;4970419;28;20041;-86
2021/06/18 01:30:55;;;;;;;8.27;6.40;;;;;;;22.53;62.60;100613.63;4995466;28;20475;-83
2021/06/18 01:33:24;;;;;;;5.45;4.97;;;;;;;22.44;62.65;100615.88;4960402;28;20034;-84
2021/06/18 01:35:58;;;;;;;9.05;6.07;;;;;;;22.34;63.88;100617.34;4950531;28;20143;-84
2021/06/18 01:38:28;;;;;;;6.63;5.82;;;;;;;22.24;64.08;100618.84;4978903;28;20602;-83
2021/06/18 01:41:01;;;;;;;6.78;6.15;;;;;;;22.12;64.63;100612.41;4975174;28;20057;-84
2021/06/18 01:43:30;;;;;;;9.67;7.30;;;;;;;22.05;65.22;100616.41;4977762;28;20065;-83
2021/06/18 01:45:58;;;;;;;6.65;6.07;;;;;;;21.99;65.56;100614.94;4972796;28;20049;-84
2021/06/18 01:48:28;;;;;;;8.48;6.63;;;;;;;21.89;66.20;100617.28;4973897;28;20046;-84
2021/06/18 01:50:56;;;;;;;8.15;6.78;;;;;;;21.80;66.87;100620.47;4950260;28;20046;-84
2021/06/18 01:53:27;;;;;;;7.47;6.88;;;;;;;21.75;66.96;100620.72;4952375;28;20498;-83
2021/06/18 01:55:54;;;;;;;8.27;7.57;;;;;;;21.70;67.25;100616.59;4973031;28;20085;-85
2021/06/18 01:58:23;;;;;;;8.70;6.22;;;;;;;21.61;67.75;100623.28;4987583;28;20061;-84
2021/06/18 02:00:52;;;;;;;6.97;6.38;;;;;;;21.54;67.56;100617.47;4987118;28;20060;-85
2021/06/18 02:03:29;;;;;;;7.28;6.68;;;;;;;21.47;68.24;100616.91;4987999;28;20048;-84
2021/06/18 02:06:03;;;;;;;7.15;6.55;;;;;;;21.42;68.30;100608.31;4991762;28;20653;-84
2021/06/18 02:08:31;;;;;;;8.00;6.97;;;;;;;21.37;68.49;100605.03;4989971;28;20381;-83
2021/06/18 02:11:00;;;;;;;6.97;6.38;;;;;;;21.34;68.61;100604.34;4984555;28;20037;-84
2021/06/18 02:13:32;;;;;;;6.55;5.95;;;;;;;21.28;68.72;100598.41;4990196;28;20053;-85
2021/06/18 02:16:04;;;;;;;8.68;7.03;;;;;;;21.23;68.98;100607.59;4974907;28;20479;-85
2021/06/18 02:18:33;;;;;;;6.93;6.20;;;;;;;21.16;69.06;100604.41;4987903;28;20380;-85
2021/06/18 02:21:02;;;;;;;6.60;6.10;;;;;;;21.11;69.28;100609.97;4976159;28;20947;-85
2021/06/18 02:23:33;;;;;;;6.97;6.00;;;;;;;21.05;69.44;100607.63;4999711;28;20841;-84
2021/06/18 02:26:04;;;;;;;7.88;7.07;;;;;;;21.03;69.68;100611.31;4989974;28;20802;-84
2021/06/18 02:28:32;;;;;;;10.70;7.00;;;;;;;20.96;69.93;100614.34;4996552;28;20880;-84
2021/06/18 02:30:59;;;;;;;9.65;7.65;;;;;;;20.91;69.93;100613.72;4984418;28;20118;-84
2021/06/18 02:33:26;;;;;;;8.00;6.80;;;;;;;20.87;70.29;100625.47;4990814;28;20053;-85
2021/06/18 02:35:54;;;;;;;8.52;7.38;;;;;;;20.84;70.41;100614.97;4985707;28;20486;-84
2021/06/18 02:38:21;;;;;;;9.70;6.68;;;;;;;20.79;70.64;100617.00;4978132;28;20056;-84
2021/06/18 02:40:49;;;;;;;8.13;6.88;;;;;;;20.75;70.60;100621.63;4986386;28;20594;-84
2021/06/18 02:43:17;;;;;;;6.85;5.95;;;;;;;20.72;70.50;100627.13;5006412;28;20056;-84
2021/06/18 02:45:44;;;;;;;9.38;7.47;;;;;;;20.70;70.70;100630.78;5006296;28;20107;-85
2021/06/18 02:48:22;;;;;;;6.53;5.60;;;;;;;20.69;70.79;100631.69;4982939;28;21067;-85
2021/06/18 02:51:14;;;;;;;6.45;5.95;;;;;;;20.65;70.90;100628.34;5007090;28;20713;-85
2021/06/18 02:54:03;;;;;;;6.80;6.10;;;;;;;20.60;71.05;100631.25;4983064;28;20037;-84
2021/06/18 02:56:57;;;;;;;8.02;6.82;;;;;;;20.55;71.95;100624.44;4972016;28;20139;-84
2021/06/18 03:00:00;;;;;;;8.52;5.88;;;;;;;20.54;71.47;100626.22;4981258;28;20136;-84
2021/06/18 03:02:35;;;;;;;7.07;6.45;;;;;;;20.55;71.00;100617.31;4970993;28;20129;-84
2021/06/18 03:05:08;;;;;;;6.50;5.88;;;;;;;20.55;70.99;100625.28;4974946;28;20057;-84
2021/06/18 03:07:41;;;;;;;7.70;7.03;;;;;;;20.57;71.04;100622.53;4953916;28;21400;-84
2021/06/18 03:10:09;;;;;;;7.57;6.65;;;;;;;20.57;71.13;100626.09;4956242;28;20073;-84
2021/06/18 03:12:41;;;;;;;9.80;7.47;;;;;;;20.57;71.19;100626.09;4981467;28;20050;-84
2021/06/18 03:15:11;;;;;;;8.30;7.25;;;;;;;20.57;71.10;100622.53;5000905;28;20051;-85
2021/06/18 03:17:42;;;;;;;7.93;7.22;;;;;;;20.54;71.27;100622.72;4946744;28;20469;-83
2021/06/18 03:20:14;;;;;;;8.57;7.20;;;;;;;20.49;71.30;100618.50;4964336;28;21266;-84
2021/06/18 03:22:47;;;;;;;8.52;6.88;;;;;;;20.50;71.55;100622.00;4969487;28;20108;-85
2021/06/18 03:25:18;;;;;;;7.07;6.33;;;;;;;20.47;71.44;100622.19;4966328;28;20046;-85
2021/06/18 03:27:46;;;;;;;6.78;6.10;;;;;;;20.44;71.49;100625.84;4985451;28;20340;-84
2021/06/18 03:30:16;;;;;;;10.23;7.10;;;;;;;20.44;71.50;100624.97;4950134;28;20186;-86
2021/06/18 03:32:44;;;;;;;9.23;6.78;;;;;;;20.43;71.70;100633.91;4966232;28;20053;-85
2021/06/18 03:35:11;;;;;;;6.82;5.75;;;;;;;20.45;71.57;100624.88;4974092;28;20053;-84
2021/06/18 03:37:40;;;;;;;7.45;5.32;;;;;;;20.49;71.35;100631.78;4977579;28;20058;-83
2021/06/18 03:40:09;;;;;;;9.10;7.00;;;;;;;20.50;71.06;100625.50;4956661;28;20045;-84
2021/06/18 03:42:37;;;;;;;6.22;5.63;;;;;;;20.49;71.67;100630.91;4965714;28;20053;-84
2021/06/18 03:45:07;;;;;;;10.20;7.18;;;;;;;20.52;71.30;100628.13;4971864;28;20070;-84
2021/06/18 03:47:36;;;;;;;7.15;5.97;;;;;;;20.54;71.65;100636.88;4990307;28;20056;-83
2021/06/18 03:50:05;;;;;;;7.00;5.85;;;;;;;20.55;71.27;100635.94;4953386;28;20049;-83
2021/06/18 03:52:32;;;;;;;7.28;6.68;;;;;;;20.59;71.14;100639.31;4987382;28;20050;-83
2021/06/18 03:55:00;;;;;;;8.57;6.75;;;;;;;20.59;71.21;100642.81;4968955;28;20034;-85
2021/06/18 03:57:27;;;;;;;9.18;6.97;;;;;;;20.61;71.11;100637.41;4968881;28;21069;-85
2021/06/18 03:59:54;;;;;;;8.15;6.45;;;;;;;20.64;71.09;100645.25;4986175;28;20046;-85
2021/06/18 04:02:26;;;;;;;6.15;5.55;;;;;;;20.67;70.97;100643.25;4959791;28;20052;-84
2021/06/18 04:04:55;;;;;;;7.07;5.60;;;;;;;20.71;70.96;100641.34;4950540;28;20041;-85
2021/06/18 04:07:23;;;;;;;7.75;6.97;;;;;;;20.74;70.80;100643.88;4966813;28;20482;-84
2021/06/18 04:09:52;;;;;;;7.88;6.80;;;;;;;20.73;70.76;100642.13;4968103;28;20432;-84
2021/06/18 04:12:21;;;;;;;7.22;6.55;;;;;;;20.73;71.05;100641.25;4970054;28;20061;-84
2021/06/18 04:14:48;;;;;;;7.93;6.55;;;;;;;20.74;70.87;100641.22;4979015;28;20038;-83
2021/06/18 04:17:15;;;;;;;8.18;6.57;;;;;;;20.79;70.81;100636.50;4968654;28;20056;-83
2021/06/18 04:19:45;;;;;;;8.35;6.70;;;;;;;20.85;70.75;100632.66;4960856;28;20049;-83
2021/06/18 04:22:30;;;;;;;8.30;6.43;;;;;;;20.88;70.81;100631.63;4983339;28;20057;-84
2021/06/18 04:24:57;;;;;;;6.57;6.00;;;;;;;20.94;70.59;100626.00;4971220;28;20082;-82
2021/06/18 04:27:26;;;;;;;8.02;6.13;;;;;;;20.98;70.54;100624.91;4976855;28;20034;-85
2021/06/18 04:29:54;;;;;;;8.30;6.28;;;;;;;21.05;70.26;100622.75;4981807;28;20042;-84
2021/06/18 04:32:21;;;;;;;11.23;6.13;;;;;;;21.11;70.12;100617.97;4976736;28;20591;-84
2021/06/18 04:34:48;;;;;;;11.88;7.65;;;;;;;21.19;69.85;100622.88;4979346;28;20118;-84
2021/06/18 04:37:16;;;;;;;9.27;6.93;;;;;;;21.25;69.40;100627.00;4980369;28;20054;-84
2021/06/18 04:39:43;;;;;;;6.72;6.00;;;;;;;21.30;69.60;100632.94;4990124;28;20065;-82
2021/06/18 04:42:11;;;;;;;10.85;6.90;;;;;;;21.36;69.43;100634.41;4978117;28;20125;-83
2021/06/18 04:44:38;;;;;;;12.85;7.57;;;;;;;21.40;69.23;100631.50;4976114;28;20041;-82
2021/06/18 04:47:13;;;;;;;11.98;7.93;;;;;;;21.43;68.97;100635.78;4979264;28;20155;-83
2021/06/18 04:49:41;;;;;;;7.28;6.55;;;;;;;21.46;68.99;100635.63;4976683;28;20628;-85
2021/06/18 04:52:12;;;;;;;7.47;6.88;;;;;;;21.49;68.65;100640.78;5005125;28;21491;-83
2021/06/18 04:54:40;;;;;;;6.97;6.30;;;;;;;21.53;68.79;100636.16;4963202;28;20060;-83
2021/06/18 04:57:10;;;;;;;8.43;7.57;;;;;;;21.58;68.24;100632.31;4942797;28;20534;-82
2021/06/18 04:59:38;;;;;;;10.50;7.50;;;;;;;21.60;68.44;100627.78;5009383;28;20062;-83
2021/06/18 05:02:07;;;;;;;6.72;6.00;;;;;;;21.62;68.47;100633.00;4998309;28;20053;-83
2021/06/18 05:04:33;;;;;;;8.13;7.40;;;;;;;21.66;68.32;100637.22;4981116;28;20037;-85
2021/06/18 05:07:00;;;;;;;9.30;7.43;;;;;;;21.71;68.03;100639.63;4999071;28;20048;-84
2021/06/18 05:09:27;;;;;;;6.72;6.20;;;;;;;21.78;67.99;100646.31;5023572;28;20053;-84
2021/06/18 05:11:55;;;;;;;8.77;7.85;;;;;;;21.84;67.68;100647.78;4979772;28;20068;-83
2021/06/18 05:14:23;;;;;;;7.82;7.07;;;;;;;21.88;67.49;100646.69;4995928;28;20857;-83
2021/06/18 05:16:52;;;;;;;7.00;6.40;;;;;;;21.94;67.39;100646.31;5005911;28;20140;-83
2021/06/18 05:19:19;;;;;;;6.97;6.47;;;;;;;22.00;67.40;100648.63;4979541;28;20520;-83
2021/06/18 05:21:48;;;;;;;7.30;6.30;;;;;;;22.08;66.96;100648.19;4993560;28;20077;-84
2021/06/18 05:24:15;;;;;;;7.32;6.60;;;;;;;22.17;66.56;100649.50;5012770;28;20140;-86
2021/06/18 05:26:44;;;;;;;8.18;6.05;;;;;;;22.25;66.35;100648.09;4979422;28;20952;-84
2021/06/18 05:29:11;;;;;;;7.38;6.07;;;;;;;22.31;66.01;100646.88;4981152;28;20576;-83
2021/06/18 05:31:39;;;;;;;8.88;6.28;;;;;;;22.33;65.89;100644.97;5011160;28;20137;-83
2021/06/18 05:34:06;;;;;;;8.43;5.72;;;;;;;22.36;65.89;100649.28;5010320;28;20116;-83
2021/06/18 05:36:32;;;;;;;7.68;6.65;;;;;;;22.41;65.77;100642.75;4996843;28;20495;-84
2021/06/18 05:38:59;;;;;;;13.80;7.20;;;;;;;22.49;65.40;100646.75;4996185;28;20042;-84
2021/06/18 05:41:28;;;;;;;10.98;5.95;;;;;;;22.56;65.34;100645.47;4993065;28;20065;-84
2021/06/18 05:43:55;;;;;;;11.63;7.10;;;;;;;22.62;65.32;100653.09;4982466;28;20222;-83
2021/06/18 05:46:22;;;;;;;6.68;5.20;;;;;;;22.67;65.19;100653.69;4987732;28;20897;-84
2021/06/18 05:48:49;;;;;;;11.27;6.93;;;;;;;22.71;65.35;100659.69;4998039;28;20049;-84
2021/06/18 05:51:15;;;;;;;10.13;6.90;;;;;;;22.74;65.18;100664.84;5003692;28;20046;-85
2021/06/18 05:53:46;;;;;;;8.65;5.60;;;;;;;22.77;65.20;100667.31;4994308;28;20064;-84
2021/06/18 05:56:14;;;;;;;7.28;6.07;;;;;;;22.82;65.31;100661.72;4982762;28;20037;-83
2021/06/18 05:58:41;;;;;;;6.68;6.00;;;;;;;22.86;64.95;100661.44;5007179;28;20072;-84
2021/06/18 06:01:08;;;;;;;9.88;6.90;;;;;;;22.90;65.01;100662.13;4994002;28;21348;-85
2021/06/18 06:03:35;;;;;;;10.45;7.38;;;;;;;22.93;65.05;100662.78;5008533;28;20047;-84
2021/06/18 06:06:08;;;;;;;8.48;6.60;;;;;;;23.00;64.59;100660.59;5006158;28;20196;-83
2021/06/18 06:08:36;;;;;;;6.88;6.22;;;;;;;23.07;64.56;100669.94;4995180;28;20057;-83
2021/06/18 06:11:06;;;;;;;8.88;6.28;;;;;;;23.10;64.41;100663.56;4990335;28;20049;-84
2021/06/18 06:13:33;;;;;;;7.78;6.47;;;;;;;23.12;64.26;100665.16;4981679;28;20790;-85
2021/06/18 06:15:59;;;;;;;6.90;6.18;;;;;;;23.15;63.75;100671.31;4980716;28;20056;-84
2021/06/18 06:18:31;;;;;;;7.38;5.68;;;;;;;23.17;63.93;100672.09;4990995;28;20053;-85
2021/06/18 06:20:59;;;;;;;7.18;6.45;;;;;;;23.18;63.79;100671.13;4979743;28;20049;-85
2021/06/18 06:23:28;;;;;;;9.98;6.53;;;;;;;23.24;63.52;100668.94;4991779;28;20049;-82
2021/06/18 06:25:56;;;;;;;11.05;6.53;;;;;;;23.33;63.15;100656.81;4994500;28;20053;-85
2021/06/18 06:28:23;;;;;;;11.85;6.60;;;;;;;23.44;63.38;100661.47;4997497;28;20067;-85
2021/06/18 06:30:49;;;;;;;8.23;5.88;;;;;;;23.54;62.84;100661.78;4986367;28;20057;-84
2021/06/18 06:33:16;;;;;;;9.02;7.47;;;;;;;23.65;62.29;100669.09;4992036;28;20084;-83
2021/06/18 06:35:42;;;;;;;9.00;6.28;;;;;;;23.69;62.38;100665.25;4987271;28;20049;-85
2021/06/18 06:38:09;;;;;;;10.35;6.68;;;;;;;23.72;62.27;100659.75;4976545;28;21478;-84
2021/06/18 06:40:36;;;;;;;8.65;6.07;;;;;;;23.79;62.26;100666.41;4980804;28;20056;-84
2021/06/18 06:43:06;;;;;;;7.03;6.35;;;;;;;23.93;61.67;100669.06;5000453;28;20067;-83
2021/06/18 06:45:33;;;;;;;8.00;7.22;;;;;;;24.07;61.34;100665.50;4991586;28;20045;-85
2021/06/18 06:48:01;;;;;;;6.65;4.88;;;;;;;24.14;61.14;100663.28;4989855;28;20049;-84
2021/06/18 06:50:31;;;;;;;10.98;6.28;;;;;;;24.19;61.31;100662.97;5006160;28;20128;-84
2021/06/18 06:52:58;;;;;;;7.20;6.60;;;;;;;24.31;60.76;100661.31;4996200;28;20044;-82
2021/06/18 06:55:25;;;;;;;10.13;6.90;;;;;;;24.42;60.79;100664.13;4985766;28;20107;-84
2021/06/18 06:57:53;;;;;;;9.70;6.22;;;;;;;24.51;60.56;100663.50;4990927;28;20049;-84
2021/06/18 07:00:22;;;;;;;11.30;6.43;;;;;;;24.64;60.13;100657.34;4987004;28;20051;-85
2021/06/18 07:02:49;;;;;;;8.82;6.80;;;;;;;24.76;59.94;100651.16;4988028;28;20254;-83
2021/06/18 07:05:16;;;;;;;8.77;6.47;;;;;;;24.87;59.42;100647.72;4974349;28;20111;-85
2021/06/18 07:07:43;;;;;;;8.45;6.10;;;;;;;24.99;59.40;100656.72;4975181;28;20510;-83
2021/06/18 07:10:12;;;;;;;6.50;5.78;;;;;;;25.09;58.80;100655.13;5008070;28;20068;-81
2021/06/18 07:12:40;;;;;;;5.45;4.90;;;;;;;25.20;57.72;100659.72;4989736;28;20045;-81
2021/06/18 07:15:09;;;;;;;9.65;4.93;;;;;;;25.31;56.46;100664.34;4979344;28;20119;-83
2021/06/18 07:17:36;;;;;;;8.18;5.18;;;;;;;25.41;55.56;100657.38;4997689;28;20053;-83
2021/06/18 07:20:05;;;;;;;5.32;4.80;;;;;;;25.52;54.53;100665.50;4990078;28;20053;-85
2021/06/18 07:22:32;;;;;;;6.57;5.88;;;;;;;25.65;53.71;100660.09;5000810;28;20049;-84
2021/06/18 07:25:00;;;;;;;4.38;4.07;;;;;;;25.81;53.14;100656.31;5001733;28;20080;-85
2021/06/18 07:27:28;;;;;;;4.28;3.90;;;;;;;26.07;52.79;100654.41;5008137;28;20037;-85
2021/06/18 07:29:55;;;;;;;7.50;5.28;;;;;;;26.42;51.76;100659.78;4988646;28;20484;-83
2021/06/18 07:32:29;;;;;;;6.10;5.00;;;;;;;26.89;50.30;100659.81;5006833;28;20602;-83
2021/06/18 07:34:56;;;;;;;5.78;5.32;;;;;;;27.38;49.45;100659.69;5012161;28;20053;-84
2021/06/18 07:37:31;;;;;;;5.40;4.70;;;;;;;27.94;47.86;100656.03;4993232;28;20120;-83
2021/06/18 07:39:58;;;;;;;5.75;4.43;;;;;;;28.43;46.89;100656.47;4976485;28;20064;-82
2021/06/18 07:42:25;;;;;;;4.85;4.18;;;;;;;28.95;46.01;100661.97;4977973;28;20601;-82
2021/06/18 07:44:52;;;;;;;10.85;5.25;;;;;;;29.48;45.00;100662.81;4989059;28;20297;-84
2021/06/18 07:47:19;;;;;;;10.90;5.15;;;;;;;30.00;43.70;100658.13;4992667;28;20072;-83
2021/06/18 07:49:46;;;;;;;8.68;5.50;;;;;;;30.51;42.86;100650.75;4988914;28;20589;-82
2021/06/18 07:52:13;;;;;;;7.70;5.05;;;;;;;31.01;42.28;100649.63;4993683;28;20043;-82
2021/06/18 07:54:40;;;;;;;7.47;5.78;;;;;;;31.41;40.95;100641.41;4994566;28;20041;-83
2021/06/18 07:57:09;;;;;;;4.93;4.53;;;;;;;31.88;40.40;100640.47;4991069;28;20098;-84
2021/06/18 07:59:36;;;;;;;4.97;4.60;;;;;;;32.23;39.62;100634.22;4992839;28;20051;-83
2021/06/18 08:02:03;;;;;;;5.00;4.20;;;;;;;32.63;38.72;100640.09;4975226;28;20083;-82
2021/06/18 08:04:32;;;;;;;4.60;4.22;;;;;;;33.11;38.12;100635.16;4996627;28;20058;-81
2021/06/18 08:06:59;;;;;;;5.53;4.70;;;;;;;33.43;36.61;100639.09;4998734;28;20061;-83
2021/06/18 08:09:25;;;;;;;4.53;4.18;;;;;;;33.77;36.23;100639.00;4992738;28;20125;-83
2021/06/18 08:11:53;;;;;;;5.53;5.03;;;;;;;34.02;34.98;100636.34;5010880;28;20048;-83
2021/06/18 08:14:20;;;;;;;5.38;4.90;;;;;;;34.15;35.18;100645.88;5010439;28;20120;-84
2021/06/18 08:16:47;;;;;;;4.97;4.50;;;;;;;34.32;34.61;100635.88;4996560;28;20109;-82
2021/06/18 08:19:15;;;;;;;5.13;4.72;;;;;;;34.58;33.72;100638.44;5002818;28;20076;-82
2021/06/18 08:21:42;;;;;;;5.15;4.10;;;;;;;34.78;33.36;100637.03;4989727;28;20503;-84
2021/06/18 08:24:09;;;;;;;5.07;4.75;;;;;;;34.99;33.28;100640.25;4999569;28;20851;-83
2021/06/18 08:26:35;;;;;;;7.05;4.53;;;;;;;35.11;32.90;100628.81;4975097;28;20376;-83
2021/06/18 08:29:06;;;;;;;4.82;4.22;;;;;;;35.50;32.37;100632.59;5013887;28;20111;-84
2021/06/18 08:31:33;;;;;;;4.53;3.63;;;;;;;35.87;32.12;100625.56;4998683;28;20052;-84
2021/06/18 08:34:00;;;;;;;5.72;4.68;;;;;;;36.17;31.38;100624.84;4975160;28;21184;-84
2021/06/18 08:36:28;;;;;;;6.78;5.40;;;;;;;36.34;31.02;100625.56;4998751;28;20124;-83
2021/06/18 08:38:55;;;;;;;6.00;4.65;;;;;;;36.65;30.80;100620.00;4979563;28;20045;-83
2021/06/18 08:41:22;;;;;;;6.88;4.57;;;;;;;37.08;30.03;100620.22;4999197;28;20392;-83
2021/06/18 08:43:50;;;;;;;5.43;5.00;;;;;;;37.65;29.33;100627.84;4982817;28;20053;-84
2021/06/18 08:46:18;;;;;;;7.65;4.50;;;;;;;38.02;28.85;100617.78;4976778;28;20496;-85
2021/06/18 08:48:47;;;;;;;5.07;4.57;;;;;;;38.23;28.09;100617.75;5014637;28;20088;-84
2021/06/18 08:51:15;;;;;;;5.13;4.22;;;;;;;38.36;27.58;100610.72;4962292;28;20183;-84
2021/06/18 08:53:43;;;;;;;5.10;4.68;;;;;;;38.54;27.41;100607.50;4981658;28;20053;-84
2021/06/18 08:56:10;;;;;;;6.97;4.70;;;;;;;38.74;27.22;100604.91;4982518;28;20125;-84
2021/06/18 08:58:38;;;;;;;5.47;4.93;;;;;;;39.15;26.59;100603.22;4984136;28;20058;-84
2021/06/18 09:01:05;;;;;;;4.68;4.28;;;;;;;39.08;26.32;100600.47;4975599;28;20141;-84
2021/06/18 09:03:45;;;;;;;5.18;4.20;;;;;;;39.24;26.67;100596.56;4972324;28;20046;-84
2021/06/18 09:06:36;;;;;;;6.20;4.68;;;;;;;39.93;25.37;100596.53;4977861;28;20050;-82
2021/06/18 09:09:24;;;;;;;5.95;5.35;;;;;;;40.45;24.55;100596.78;4960986;28;20046;-85
2021/06/18 09:11:57;;;;;;;6.05;4.53;;;;;;;40.86;24.42;100603.91;4976618;28;20122;-84
2021/06/18 09:14:46;;;;;;;4.82;4.20;;;;;;;41.32;24.03;100607.53;4979023;28;20054;-82
2021/06/18 09:17:27;;;;;;;4.65;4.15;;;;;;;41.72;22.92;100611.97;4970417;28;20076;-84
2021/06/18 09:20:03;;;;;;;4.63;4.13;;;;;;;41.75;22.54;100617.88;4992517;28;20034;-83
2021/06/18 09:22:43;;;;;;;6.90;6.30;;;;;;;41.69;22.36;100616.00;4969425;28;20510;-83
2021/06/18 09:25:18;;;;;;;5.32;3.85;;;;;;;42.00;22.07;100619.84;4995459;28;20528;-83
2021/06/18 09:27:54;;;;;;;7.25;4.32;;;;;;;42.21;21.90;100610.38;4959432;28;20053;-85
2021/06/18 09:30:30;;;;;;;5.15;4.47;;;;;;;42.35;21.68;100611.13;4960636;28;20377;-83
2021/06/18 09:33:09;;;;;;;4.05;3.70;;;;;;;42.52;21.12;100605.03;4978529;28;20042;-84
2021/06/18 09:35:37;;;;;;;6.57;4.70;;;;;;;42.53;21.46;100603.97;4989313;28;20069;-84
2021/06/18 09:38:09;;;;;;;4.82;4.47;;;;;;;42.52;21.38;100613.28;4944282;28;20041;-83
2021/06/18 09:40:36;;;;;;;5.95;4.45;;;;;;;42.91;20.73;100609.28;4989627;28;20362;-83
2021/06/18 09:43:14;;;;;;;4.20;3.90;;;;;;;42.85;21.04;100610.22;4993197;28;20057;-84
2021/06/18 09:45:42;;;;;;;4.63;4.22;;;;;;;43.27;20.35;100610.38;4958894;28;20476;-86
2021/06/18 09:48:12;;;;;;;5.35;3.92;;;;;;;43.70;19.92;100610.41;4987237;28;20056;-82
2021/06/18 09:50:42;;;;;;;4.37;3.70;;;;;;;44.19;19.38;100608.38;4960957;28;20137;-82
2021/06/18 09:56:10;;;;;;;5.05;4.22;;;;;;;44.91;18.05;100598.16;4979583;28;20162;-82
2021/06/18 09:58:43;;;;;;;3.95;3.75;;;;;;;45.42;17.65;100604.75;4980244;28;20064;-83
2021/06/18 10:01:28;;;;;;;4.03;3.72;;;;;;;46.06;16.49;100606.47;4996691;28;20045;-82
2021/06/18 10:04:11;;;;;;;3.67;3.38;;;;;;;46.49;16.41;100609.59;4995456;28;20141;-85
2021/06/18 10:06:42;;;;;;;3.42;3.13;;;;;;;46.80;16.40;100609.22;4973964;28;20156;-83
2021/06/18 10:09:18;;;;;;;3.00;2.90;;;;;;;46.71;16.21;100611.59;5000033;28;20135;-82
2021/06/18 10:11:45;;;;;;;3.22;2.95;;;;;;;46.17;16.23;100603.81;4997988;28;20074;-83
2021/06/18 10:14:16;;;;;;;3.45;3.17;;;;;;;46.05;15.83;100601.16;4989209;28;20049;-82
2021/06/18 10:16:46;;;;;;;4.22;3.92;;;;;;;46.13;15.68;100597.13;5008138;28;20065;-84
2021/06/18 10:19:13;;;;;;;3.60;3.38;;;;;;;46.17;15.89;100609.34;4997793;28;20037;-83
2021/06/18 10:21:58;;;;;;;5.63;3.60;;;;;;;46.32;15.63;100601.31;4998379;28;20044;-85
2021/06/18 10:24:57;;;;;;;3.53;3.20;;;;;;;46.43;14.87;100599.56;4978128;28;20056;-85
2021/06/18 10:27:41;;;;;;;4.60;3.00;;;;;;;46.67;15.09;100599.34;4989978;28;20041;-85
2021/06/18 10:33:29;;;;;;;5.22;3.03;;;;;;;47.48;13.61;100584.00;5006441;28;20092;-84
2021/06/18 10:36:02;;;;;;;4.57;3.08;;;;;;;47.88;13.75;100591.03;4986949;28;20049;-82
2021/06/18 10:38:45;;;;;;;2.95;2.75;;;;;;;48.34;13.07;100582.19;4994122;28;20188;-82
2021/06/18 10:41:15;;;;;;;3.67;2.88;;;;;;;48.88;12.66;100591.38;4994105;28;20056;-83
2021/06/18 10:43:47;;;;;;;3.00;2.90;;;;;;;49.38;12.40;100589.88;4990029;28;20056;-84
2021/06/18 10:46:37;;;;;;;3.42;3.15;;;;;;;49.04;12.35;100582.00;4999840;28;20147;-83
2021/06/18 10:49:17;;;;;;;2.90;2.80;;;;;;;48.82;11.92;100585.78;5015412;28;20048;-83
2021/06/18 10:51:50;;;;;;;2.55;2.35;;;;;;;48.84;11.80;100589.13;4986913;28;20061;-82
2021/06/18 10:54:47;;;;;;;3.92;3.22;;;;;;;49.00;12.26;100578.09;5011688;28;20109;-84
2021/06/18 10:57:21;;;;;;;3.28;3.08;;;;;;;49.15;12.58;100577.31;5002168;28;20153;-83
2021/06/18 11:00:13;;;;;;;3.10;2.90;;;;;;;48.67;12.50;100581.03;5018190;28;20445;-85
2021/06/18 11:02:43;;;;;;;3.42;3.22;;;;;;;48.54;12.24;100578.72;4982253;28;20046;-84
2021/06/18 11:05:16;;;;;;;3.47;3.28;;;;;;;47.19;13.25;100581.44;5010276;28;20530;-85
2021/06/18 11:07:51;;;;;;;5.82;3.45;;;;;;;46.20;13.39;100581.19;5011351;28;20522;-84
2021/06/18 11:10:31;;;;;;;3.55;3.45;;;;;;;45.86;13.54;100575.66;4968182;28;20045;-83
2021/06/18 11:13:10;;;;;;;4.25;3.75;;;;;;;45.77;14.13;100577.19;4994288;28;20053;-83
2021/06/18 11:15:42;;;;;;;3.72;3.58;;;;;;;45.68;13.13;100571.22;5012836;28;20129;-82
2021/06/18 11:18:31;;;;;;;4.10;3.90;;;;;;;44.43;15.06;100567.88;4998860;28;20049;-84
2021/06/18 11:21:00;;;;;;;3.90;3.70;;;;;;;43.50;16.00;100570.22;4994871;28;20069;-84
2021/06/18 11:23:35;;;;;;;3.90;3.60;;;;;;;43.54;16.57;100565.09;4979106;28;20047;-84
2021/06/18 11:26:12;;;;;;;3.92;3.83;;;;;;;44.42;16.04;100565.31;4991394;28;20141;-83
2021/06/18 11:28:47;;;;;;;4.50;4.10;;;;;;;45.43;15.27;100564.94;4980760;28;20183;-83
2021/06/18 11:31:21;;;;;;;4.25;3.83;;;;;;;46.37;14.42;100565.41;4975396;28;20058;-83
2021/06/18 11:33:55;;;;;;;3.80;3.38;;;;;;;47.43;13.69;100562.59;4997109;28;22644;-81
2021/06/18 11:36:22;;;;;;;4.05;3.63;;;;;;;48.52;13.47;100565.06;5001386;28;20041;-83
2021/06/18 11:38:58;;;;;;;4.93;4.30;;;;;;;49.08;12.98;100569.22;5009066;28;20127;-83
2021/06/18 11:41:30;;;;;;;5.00;4.55;;;;;;;49.00;13.30;100561.44;5000158;28;20135;-84
2021/06/18 11:44:01;;;;;;;4.85;4.55;;;;;;;48.73;14.39;100558.81;5012732;28;20075;-84
2021/06/18 11:46:32;;;;;;;4.90;4.50;;;;;;;48.63;14.54;100557.69;4998350;28;20057;-83
2021/06/18 11:49:18;;;;;;;5.00;4.60;;;;;;;48.78;14.28;100556.88;4990703;28;20088;-81